Matagorda, Texas
Current Conditions -  °F | °C
As of 12:53 PM on Sunday 23 Nov 2014 (Local Time) from KPSX Reporting Station
Clear Clear  
Wind Chill: 24°   Ceiling: Unl
Heat Index: 24°   Visibility: 10mi
Dew Point: 15°   Wind: 8mph
Humidity: 56%   Direction: 200°SSW
Pressure: 29.64"   Gusts: NA
Location:  28.69°N, 95.97°W
Report Text: KPSX 231853Z AUTO 20007KT 10SM CLR 24/15 A2964 RMK AO2 SLP036 T02440150
Loading
Personal Weather Stations






























Interactive Weather Map New forecast layout! Learn more

10-Day Weather Forecast

Advertisements
Track Severe Weather on mobile